Time;durP1;ratioP1;P1;durP2;ratioP2;P2;SDS_P1;SDS_P2;PMS_P1;PMS_P2;Temp;Humidity;BMP_temperature;BMP_pressure;BME280_temperature;BME280_humidity;BME280_pressure;Samples;Min_cycle;Max_cycle;Signal;HPM_P1;HPM_P2
2020/12/27 00:01:37;;;;;;;0.63;0.60;;;5.90;99.90;;;;;;4141536;28;20338;-72
2020/12/27 00:03:37;;;;;;;2.53;0.65;;;5.90;99.90;;;;;;4128885;28;20262;-72
2020/12/27 00:05:38;;;;;;;1.23;0.60;;;5.90;99.90;;;;;;4137484;28;20037;-72
2020/12/27 00:07:39;;;;;;;0.52;0.43;;;5.90;99.90;;;;;;4149729;28;20037;-72
2020/12/27 00:09:40;;;;;;;1.63;0.88;;;5.90;99.90;;;;;;4134116;28;20371;-72
2020/12/27 00:11:41;;;;;;;1.23;0.70;;;5.90;99.90;;;;;;4125465;28;20691;-72
2020/12/27 00:13:41;;;;;;;0.93;0.57;;;5.90;99.90;;;;;;4133301;28;20269;-71
2020/12/27 00:15:43;;;;;;;0.70;0.52;;;5.90;99.90;;;;;;4149903;28;20115;-72
2020/12/27 00:17:44;;;;;;;1.02;0.60;;;5.90;99.90;;;;;;4119911;28;20410;-72
2020/12/27 00:19:44;;;;;;;0.75;0.60;;;6.00;99.90;;;;;;4142788;28;20096;-71
2020/12/27 00:21:45;;;;;;;0.50;0.50;;;5.90;99.90;;;;;;4114419;28;20106;-71
2020/12/27 00:23:45;;;;;;;0.60;0.47;;;5.90;99.90;;;;;;4132839;28;20494;-72
2020/12/27 00:25:46;;;;;;;1.08;0.68;;;5.90;99.90;;;;;;4131745;28;20041;-72
2020/12/27 00:27:47;;;;;;;0.73;0.57;;;6.00;99.90;;;;;;4148014;28;20042;-72
2020/12/27 00:29:48;;;;;;;0.93;0.63;;;5.90;99.90;;;;;;4135480;28;20041;-72
2020/12/27 00:31:49;;;;;;;1.35;0.63;;;5.90;99.90;;;;;;4142116;28;20038;-72
2020/12/27 00:33:50;;;;;;;1.65;0.55;;;5.90;99.90;;;;;;4160500;28;20046;-71
2020/12/27 00:35:50;;;;;;;0.80;0.80;;;5.90;99.90;;;;;;4130028;28;20041;-72
2020/12/27 00:37:51;;;;;;;0.70;0.55;;;5.90;99.90;;;;;;4129183;28;20026;-72
2020/12/27 00:39:54;;;;;;;0.63;0.50;;;5.90;99.90;;;;;;4133801;28;20508;-72
2020/12/27 00:42:00;;;;;;;1.05;0.63;;;5.90;99.90;;;;;;4127781;28;20026;-72
2020/12/27 00:44:01;;;;;;;0.52;0.50;;;5.90;99.90;;;;;;4134663;28;20524;-72
2020/12/27 00:46:01;;;;;;;0.80;0.55;;;5.90;99.90;;;;;;4141092;28;20030;-72
2020/12/27 00:48:02;;;;;;;1.40;0.50;;;5.80;99.90;;;;;;4142022;28;20370;-72
2020/12/27 00:50:03;;;;;;;0.40;0.40;;;5.90;99.90;;;;;;4140096;28;20657;-71
2020/12/27 00:52:03;;;;;;;0.40;0.32;;;5.80;99.90;;;;;;4127189;28;20508;-72
2020/12/27 00:54:06;;;;;;;0.88;0.45;;;5.80;99.90;;;;;;4141495;28;20034;-72
2020/12/27 00:56:09;;;;;;;0.80;0.60;;;5.80;99.90;;;;;;4134981;28;20728;-72
2020/12/27 00:58:09;;;;;;;0.45;0.40;;;5.80;99.90;;;;;;4143621;28;20034;-72
2020/12/27 01:00:10;;;;;;;1.45;0.60;;;5.80;99.90;;;;;;4132386;28;20038;-72
2020/12/27 01:02:10;;;;;;;0.85;0.60;;;5.80;99.90;;;;;;4125635;28;20066;-72
2020/12/27 01:04:11;;;;;;;0.70;0.60;;;5.80;99.90;;;;;;4139223;28;20026;-72
2020/12/27 01:06:12;;;;;;;1.13;0.60;;;5.80;99.90;;;;;;4144231;28;20397;-72
2020/12/27 01:08:12;;;;;;;0.57;0.50;;;5.80;99.90;;;;;;4143211;28;20033;-72
2020/12/27 01:10:13;;;;;;;0.63;0.63;;;5.80;99.90;;;;;;4139441;28;20058;-72
2020/12/27 01:12:13;;;;;;;0.52;0.50;;;5.80;99.90;;;;;;4142808;28;20026;-72
2020/12/27 01:14:14;;;;;;;0.50;0.40;;;5.80;99.90;;;;;;4142819;28;20379;-72
2020/12/27 01:16:19;;;;;;;1.13;0.47;;;5.70;99.90;;;;;;4135030;28;20034;-72
2020/12/27 01:18:19;;;;;;;1.17;0.50;;;5.80;99.90;;;;;;4142446;28;20637;-72
2020/12/27 01:20:20;;;;;;;1.15;0.55;;;5.70;99.90;;;;;;4129034;28;20034;-72
2020/12/27 01:22:21;;;;;;;0.65;0.50;;;5.70;99.90;;;;;;4142239;28;20115;-72
2020/12/27 01:24:21;;;;;;;0.52;0.50;;;5.70;99.90;;;;;;4145316;28;20060;-72
2020/12/27 01:26:32;;;;;;;0.50;0.40;;;5.70;99.90;;;;;;4134921;28;20054;-72
2020/12/27 01:28:33;;;;;;;1.13;0.80;;;5.70;99.90;;;;;;4131592;28;20042;-72
2020/12/27 01:30:33;;;;;;;1.27;0.70;;;5.60;99.90;;;;;;4133678;28;20165;-72
2020/12/27 01:32:34;;;;;;;0.30;0.30;;;5.60;99.90;;;;;;4142919;28;20124;-72
2020/12/27 01:34:34;;;;;;;0.88;0.52;;;5.60;99.90;;;;;;4156056;28;20044;-72
2020/12/27 01:36:35;;;;;;;0.77;0.50;;;5.60;99.90;;;;;;4136527;28;20038;-72
2020/12/27 01:38:36;;;;;;;0.77;0.50;;;5.60;99.90;;;;;;4141552;28;20494;-72
2020/12/27 01:40:37;;;;;;;1.35;0.85;;;5.60;99.90;;;;;;4133771;28;20466;-72
2020/12/27 01:42:38;;;;;;;0.75;0.50;;;5.60;99.90;;;;;;4140990;28;20037;-72
2020/12/27 01:44:39;;;;;;;0.82;0.55;;;5.60;99.90;;;;;;4136087;28;20099;-72
2020/12/27 01:46:41;;;;;;;0.50;0.40;;;5.60;99.90;;;;;;4135493;28;20038;-72
2020/12/27 01:48:42;;;;;;;0.80;0.60;;;5.60;99.90;;;;;;4142426;28;20500;-72
2020/12/27 01:50:43;;;;;;;1.08;0.52;;;5.70;99.90;;;;;;4139153;28;20046;-72
2020/12/27 01:52:44;;;;;;;0.75;0.60;;;5.60;99.90;;;;;;4125125;28;20026;-72
2020/12/27 01:54:45;;;;;;;1.10;0.60;;;5.60;99.90;;;;;;4137038;28;20038;-72
2020/12/27 01:56:49;;;;;;;1.50;0.47;;;5.70;99.90;;;;;;4136069;28;20088;-72
2020/12/27 01:58:56;;;;;;;0.88;0.68;;;5.70;99.90;;;;;;4142154;28;20116;-72
2020/12/27 02:01:00;;;;;;;2.03;0.68;;;5.70;99.90;;;;;;4137479;28;20045;-72
2020/12/27 02:03:00;;;;;;;1.00;0.80;;;5.60;99.90;;;;;;4139947;28;20038;-72
2020/12/27 02:05:01;;;;;;;0.85;0.65;;;5.70;99.90;;;;;;4140952;28;20556;-72
2020/12/27 02:07:04;;;;;;;0.95;0.57;;;5.60;99.90;;;;;;4149194;28;20371;-71
2020/12/27 02:09:04;;;;;;;2.78;0.68;;;5.70;99.90;;;;;;4130698;28;20540;-72
2020/12/27 02:11:05;;;;;;;1.00;0.60;;;5.70;99.90;;;;;;4141335;28;20041;-72
2020/12/27 02:13:06;;;;;;;0.60;0.60;;;5.70;99.90;;;;;;4140530;28;20041;-72
2020/12/27 02:15:07;;;;;;;0.75;0.60;;;5.70;99.90;;;;;;4141912;28;20056;-72
2020/12/27 02:17:07;;;;;;;0.50;0.50;;;5.70;99.90;;;;;;4139393;28;20041;-72
2020/12/27 02:19:12;;;;;;;0.82;0.63;;;5.70;99.90;;;;;;4140833;28;20075;-72
2020/12/27 02:21:13;;;;;;;0.73;0.50;;;5.70;99.90;;;;;;4134903;28;20038;-72
2020/12/27 02:23:16;;;;;;;1.10;0.80;;;5.70;99.90;;;;;;4138767;28;20053;-72
2020/12/27 02:25:17;;;;;;;0.63;0.32;;;5.70;99.90;;;;;;4161489;28;20714;-72
2020/12/27 02:27:18;;;;;;;0.85;0.60;;;5.80;99.90;;;;;;4133086;28;20030;-72
2020/12/27 02:29:18;;;;;;;0.57;0.45;;;5.80;99.90;;;;;;4140688;28;20092;-72
2020/12/27 02:31:26;;;;;;;0.80;0.50;;;5.80;99.90;;;;;;4133884;28;20034;-72
2020/12/27 02:33:27;;;;;;;0.73;0.25;;;5.80;99.90;;;;;;4131590;28;20037;-72
2020/12/27 02:35:28;;;;;;;0.63;0.50;;;5.80;99.90;;;;;;4140864;28;20053;-72
2020/12/27 02:37:29;;;;;;;0.20;0.20;;;5.80;99.90;;;;;;4135540;28;20030;-72
2020/12/27 02:39:29;;;;;;;0.30;0.30;;;5.80;99.90;;;;;;4140189;28;20053;-72
2020/12/27 02:41:31;;;;;;;0.77;0.60;;;5.80;99.90;;;;;;4126122;28;20035;-72
2020/12/27 02:43:31;;;;;;;0.30;0.30;;;5.80;99.90;;;;;;4142772;28;20539;-72
2020/12/27 02:45:33;;;;;;;0.77;0.47;;;5.80;99.90;;;;;;4139431;28;20068;-72
2020/12/27 02:47:34;;;;;;;0.70;0.40;;;5.80;99.90;;;;;;4136270;28;20034;-72
2020/12/27 02:49:34;;;;;;;0.80;0.40;;;5.80;99.90;;;;;;4143448;28;20882;-72
2020/12/27 02:51:35;;;;;;;2.03;0.35;;;5.80;99.90;;;;;;4134054;28;20065;-72
2020/12/27 02:53:35;;;;;;;0.47;0.40;;;5.80;99.90;;;;;;4145059;28;20060;-72
2020/12/27 02:55:36;;;;;;;0.52;0.40;;;5.80;99.90;;;;;;4142780;28;20041;-72
2020/12/27 02:57:37;;;;;;;1.15;0.60;;;5.90;99.90;;;;;;4139369;28;20050;-72
2020/12/27 02:59:37;;;;;;;0.40;0.22;;;5.90;99.90;;;;;;4143731;28;20065;-72
2020/12/27 03:01:38;;;;;;;0.43;0.32;;;5.80;99.90;;;;;;4141953;28;20049;-72
2020/12/27 03:03:39;;;;;;;0.65;0.40;;;5.90;99.90;;;;;;4121121;28;20350;-72
2020/12/27 03:05:40;;;;;;;0.32;0.20;;;5.80;99.90;;;;;;4133649;28;20069;-72
2020/12/27 03:07:40;;;;;;;0.90;0.65;;;5.90;99.90;;;;;;4147755;28;20035;-72
2020/12/27 03:09:41;;;;;;;0.70;0.40;;;5.90;99.90;;;;;;4160162;28;20531;-72
2020/12/27 03:11:42;;;;;;;1.30;0.45;;;5.80;99.90;;;;;;4140448;28;20089;-72
2020/12/27 03:13:43;;;;;;;0.35;0.32;;;5.80;99.90;;;;;;4139955;28;20497;-72
2020/12/27 03:15:43;;;;;;;0.70;0.25;;;5.80;99.90;;;;;;4142223;28;20097;-72
2020/12/27 03:17:44;;;;;;;1.02;0.40;;;5.80;99.90;;;;;;4139944;28;20188;-72
2020/12/27 03:19:45;;;;;;;0.28;0.22;;;5.80;99.90;;;;;;4138350;28;20114;-72
2020/12/27 03:21:45;;;;;;;0.10;0.10;;;5.80;99.90;;;;;;4160477;28;20200;-72
2020/12/27 03:23:46;;;;;;;1.55;0.47;;;5.80;99.90;;;;;;4140417;28;20054;-72
2020/12/27 03:25:47;;;;;;;0.77;0.45;;;5.80;99.90;;;;;;4146334;28;20409;-72
2020/12/27 03:27:47;;;;;;;0.57;0.38;;;5.80;99.90;;;;;;4141358;28;20053;-72
2020/12/27 03:29:48;;;;;;;0.28;0.28;;;5.80;99.90;;;;;;4132130;28;20033;-72
2020/12/27 03:31:48;;;;;;;0.30;0.20;;;5.80;99.90;;;;;;4135208;28;20494;-72
2020/12/27 03:33:49;;;;;;;0.30;0.20;;;5.80;99.90;;;;;;4133346;28;20587;-72
2020/12/27 03:35:50;;;;;;;0.73;0.20;;;5.80;99.90;;;;;;4134674;28;20034;-72
2020/12/27 03:37:50;;;;;;;0.32;0.30;;;5.80;99.90;;;;;;4118883;28;20053;-72
2020/12/27 03:39:51;;;;;;;0.32;0.20;;;5.80;99.90;;;;;;4144477;28;20466;-72
2020/12/27 03:41:51;;;;;;;0.50;0.40;;;5.80;99.90;;;;;;4154886;28;20057;-72
2020/12/27 03:43:52;;;;;;;0.65;0.40;;;5.80;99.90;;;;;;4138915;28;20030;-72
2020/12/27 03:45:53;;;;;;;0.28;0.28;;;5.80;99.90;;;;;;4129206;28;20041;-72
2020/12/27 03:47:54;;;;;;;0.52;0.38;;;5.80;99.90;;;;;;4137626;28;20088;-72
2020/12/27 03:49:55;;;;;;;0.30;0.30;;;5.90;99.90;;;;;;4136525;28;20049;-72
2020/12/27 03:51:56;;;;;;;0.40;0.20;;;5.80;99.90;;;;;;4113741;28;20141;-72
2020/12/27 03:53:56;;;;;;;1.88;0.68;;;5.90;99.90;;;;;;4134257;28;20041;-72
2020/12/27 03:55:57;;;;;;;0.20;0.20;;;5.90;99.90;;;;;;4135488;28;20054;-72
2020/12/27 03:57:58;;;;;;;0.17;0.17;;;5.90;99.90;;;;;;4137225;28;20046;-72
2020/12/27 04:00:03;;;;;;;0.52;0.32;;;5.90;99.90;;;;;;4134321;28;20030;-72
2020/12/27 04:02:03;;;;;;;0.60;0.30;;;5.90;99.90;;;;;;4133464;28;20050;-72
2020/12/27 04:04:04;;;;;;;0.30;0.20;;;5.90;99.90;;;;;;4131936;28;20729;-72
2020/12/27 04:06:04;;;;;;;0.63;0.30;;;5.90;99.90;;;;;;4135084;28;20038;-72
2020/12/27 04:08:05;;;;;;;1.35;0.25;;;5.90;99.90;;;;;;4135356;28;20026;-72
2020/12/27 04:10:06;;;;;;;0.20;0.20;;;5.90;99.90;;;;;;4135063;28;20061;-72
2020/12/27 04:12:06;;;;;;;1.20;0.38;;;5.90;99.90;;;;;;4136436;28;20043;-72
2020/12/27 04:14:07;;;;;;;0.38;0.30;;;5.90;99.90;;;;;;4136370;28;20216;-72
2020/12/27 04:16:08;;;;;;;0.22;0.20;;;6.00;99.90;;;;;;4138285;28;20041;-72
2020/12/27 04:18:09;;;;;;;0.25;0.15;;;5.90;99.90;;;;;;4134778;28;20681;-72
2020/12/27 04:20:09;;;;;;;0.70;0.28;;;5.90;99.90;;;;;;4137556;28;20064;-72
2020/12/27 04:22:10;;;;;;;0.55;0.30;;;6.00;99.90;;;;;;4142366;28;20394;-72
2020/12/27 04:24:11;;;;;;;0.28;0.20;;;5.90;99.90;;;;;;4136276;28;20092;-72
2020/12/27 04:26:18;;;;;;;0.25;0.20;;;6.00;99.90;;;;;;4129024;28;20041;-72
2020/12/27 04:28:19;;;;;;;0.80;0.17;;;6.00;99.90;;;;;;4142572;28;20117;-72
2020/12/27 04:30:19;;;;;;;0.38;0.30;;;6.00;99.90;;;;;;4142942;28;20041;-72
2020/12/27 04:32:22;;;;;;;0.20;0.20;;;6.00;99.90;;;;;;4142223;28;20076;-72
2020/12/27 04:34:23;;;;;;;0.90;0.43;;;6.00;99.90;;;;;;4134874;28;20045;-72
2020/12/27 04:36:24;;;;;;;0.40;0.20;;;6.00;99.90;;;;;;4141517;28;20065;-72
2020/12/27 04:38:25;;;;;;;0.85;0.30;;;6.00;99.90;;;;;;4141286;28;20044;-72
2020/12/27 04:40:25;;;;;;;0.10;0.10;;;6.10;99.90;;;;;;4109739;28;20051;-72
2020/12/27 04:42:26;;;;;;;0.50;0.32;;;6.00;99.90;;;;;;4140190;28;20044;-72
2020/12/27 04:44:28;;;;;;;0.40;0.30;;;6.10;99.90;;;;;;4136331;28;20486;-72
2020/12/27 04:46:29;;;;;;;0.65;0.20;;;6.10;99.90;;;;;;4142179;28;20050;-72
2020/12/27 04:48:31;;;;;;;0.20;0.20;;;6.10;99.90;;;;;;4133343;28;20053;-72
2020/12/27 04:50:32;;;;;;;0.10;0.10;;;6.10;99.90;;;;;;4152821;28;20260;-72
2020/12/27 04:52:33;;;;;;;0.25;0.20;;;6.10;99.90;;;;;;4133654;28;20100;-72
2020/12/27 04:54:35;;;;;;;0.20;0.20;;;6.10;99.90;;;;;;4136221;28;20046;-72
2020/12/27 04:56:38;;;;;;;1.67;0.57;;;6.10;99.90;;;;;;4142468;28;20083;-71
2020/12/27 04:58:39;;;;;;;0.22;0.03;;;6.10;99.90;;;;;;4140532;28;20943;-71
2020/12/27 05:00:39;;;;;;;0.15;0.15;;;6.10;99.90;;;;;;4126197;28;22153;-72
2020/12/27 05:02:40;;;;;;;0.13;0.13;;;6.10;99.90;;;;;;4135013;28;20045;-71
2020/12/27 05:04:43;;;;;;;0.10;0.10;;;6.20;99.90;;;;;;4137557;28;20065;-71
2020/12/27 05:06:44;;;;;;;0.40;0.25;;;6.20;99.90;;;;;;4136270;28;20038;-71
2020/12/27 05:08:46;;;;;;;0.30;0.20;;;6.20;99.90;;;;;;4139311;28;20030;-71
2020/12/27 05:10:48;;;;;;;0.60;0.30;;;6.20;99.90;;;;;;4128486;28;20042;-71
2020/12/27 05:12:48;;;;;;;0.20;0.20;;;6.20;99.90;;;;;;4138690;28;20036;-71
2020/12/27 05:14:49;;;;;;;0.73;0.20;;;6.20;99.90;;;;;;4148975;28;20061;-71
2020/12/27 05:16:52;;;;;;;0.10;0.10;;;6.30;99.90;;;;;;4139003;28;20045;-71
2020/12/27 05:18:53;;;;;;;0.10;0.10;;;6.30;99.90;;;;;;4137399;28;20034;-71
2020/12/27 05:20:53;;;;;;;1.00;0.25;;;6.30;99.90;;;;;;4135931;28;20034;-71
2020/12/27 05:23:01;;;;;;;0.20;0.20;;;6.30;99.90;;;;;;4134101;28;20036;-72
2020/12/27 05:25:04;;;;;;;0.20;0.13;;;6.30;99.90;;;;;;4136822;28;20038;-71
2020/12/27 05:27:08;;;;;;;0.13;0.10;;;6.30;99.90;;;;;;4146169;28;20037;-72
2020/12/27 05:29:09;;;;;;;0.17;0.17;;;6.30;99.90;;;;;;4134770;28;20034;-71
2020/12/27 05:31:14;;;;;;;0.52;0.30;;;6.30;99.90;;;;;;4137154;28;20512;-71
2020/12/27 05:33:16;;;;;;;0.00;0.00;;;6.30;99.90;;;;;;4134389;28;20438;-71
2020/12/27 05:35:17;;;;;;;0.30;0.20;;;6.40;99.90;;;;;;4137912;28;20057;-72
2020/12/27 05:37:19;;;;;;;0.45;0.20;;;6.40;99.90;;;;;;4134514;28;20459;-71
2020/12/27 05:39:20;;;;;;;0.35;0.10;;;6.40;99.90;;;;;;4136699;28;20096;-72
2020/12/27 05:41:27;;;;;;;0.10;0.10;;;6.40;99.90;;;;;;4141432;28;20061;-71
2020/12/27 05:43:28;;;;;;;0.20;0.20;;;6.40;99.90;;;;;;4141526;28;20041;-72
2020/12/27 05:45:29;;;;;;;0.20;0.10;;;6.40;99.90;;;;;;4135963;28;20038;-72
2020/12/27 05:47:32;;;;;;;0.20;0.10;;;6.40;99.90;;;;;;4141073;28;20046;-72
2020/12/27 05:49:32;;;;;;;0.60;0.20;;;6.40;99.90;;;;;;4140739;28;20056;-72
2020/12/27 05:51:42;;;;;;;0.10;0.10;;;6.40;99.90;;;;;;4137565;28;20156;-72
2020/12/27 05:53:50;;;;;;;0.45;0.20;;;6.40;99.90;;;;;;4139275;28;20040;-71
2020/12/27 05:55:52;;;;;;;0.00;0.00;;;6.40;99.90;;;;;;4137839;28;20038;-71
2020/12/27 05:57:54;;;;;;;0.10;0.10;;;6.50;99.90;;;;;;4135381;28;20069;-72
2020/12/27 05:59:56;;;;;;;0.38;0.20;;;6.50;99.90;;;;;;4134401;28;20390;-72
2020/12/27 06:01:58;;;;;;;0.10;0.03;;;6.50;99.90;;;;;;4125817;28;20026;-71
2020/12/27 06:04:02;;;;;;;0.45;0.20;;;6.50;99.90;;;;;;4131075;28;20028;-71
2020/12/27 06:06:11;;;;;;;0.45;0.10;;;6.50;99.90;;;;;;4136426;28;20045;-72
2020/12/27 06:08:33;;;;;;;0.22;0.10;;;6.50;99.90;;;;;;4140751;28;20030;-71
2020/12/27 06:10:54;;;;;;;0.13;0.13;;;6.50;99.90;;;;;;4133325;28;20104;-72
2020/12/27 06:12:58;;;;;;;0.10;0.10;;;6.50;99.90;;;;;;4128685;28;20057;-71
2020/12/27 06:15:07;;;;;;;1.08;0.35;;;6.50;99.90;;;;;;4142326;28;20087;-71
2020/12/27 06:17:15;;;;;;;0.10;0.10;;;6.50;99.90;;;;;;4128019;28;20050;-71
2020/12/27 06:19:25;;;;;;;0.95;0.03;;;6.50;99.90;;;;;;4133677;28;20142;-71
2020/12/27 06:21:28;;;;;;;0.20;0.10;;;6.50;99.90;;;;;;4161039;28;20053;-72
2020/12/27 06:23:30;;;;;;;0.17;0.17;;;6.50;99.90;;;;;;4124385;28;20210;-72
2020/12/27 06:25:31;;;;;;;0.20;0.20;;;6.50;99.90;;;;;;4140632;28;20068;-72
2020/12/27 06:27:32;;;;;;;0.05;0.05;;;6.50;99.90;;;;;;4139968;28;20388;-72
2020/12/27 06:29:50;;;;;;;0.90;0.32;;;6.60;99.90;;;;;;4139859;28;20080;-72
2020/12/27 06:31:53;;;;;;;0.50;0.30;;;6.60;99.90;;;;;;4139169;28;20301;-72
2020/12/27 06:33:54;;;;;;;0.43;0.30;;;6.60;99.90;;;;;;4139869;28;20153;-72
2020/12/27 06:35:54;;;;;;;0.20;0.20;;;6.60;99.90;;;;;;4137134;28;20568;-72
2020/12/27 06:37:56;;;;;;;0.30;0.20;;;6.60;99.90;;;;;;4139761;28;20041;-72
2020/12/27 06:39:57;;;;;;;0.77;0.38;;;6.60;99.90;;;;;;4100133;28;20071;-72
2020/12/27 06:42:11;;;;;;;0.43;0.22;;;6.60;99.90;;;;;;4138241;28;20130;-72
2020/12/27 06:44:38;;;;;;;0.50;0.22;;;6.60;99.90;;;;;;4139362;28;20036;-72
2020/12/27 06:46:46;;;;;;;0.40;0.35;;;6.60;99.90;;;;;;4139280;28;20237;-72
2020/12/27 06:48:46;;;;;;;0.40;0.30;;;6.70;99.90;;;;;;4143775;28;20378;-72
2020/12/27 06:50:47;;;;;;;0.63;0.20;;;6.60;99.90;;;;;;4141591;28;20026;-72
2020/12/27 06:52:48;;;;;;;0.50;0.40;;;6.60;99.90;;;;;;4134701;28;20529;-72
2020/12/27 06:54:54;;;;;;;0.57;0.30;;;6.60;99.90;;;;;;4135744;28;20030;-72
2020/12/27 06:56:59;;;;;;;1.88;0.80;;;6.60;99.90;;;;;;4141627;28;20057;-72
2020/12/27 06:59:03;;;;;;;1.55;0.70;;;6.60;99.90;;;;;;4138124;28;20038;-71
2020/12/27 07:01:22;;;;;;;0.30;0.20;;;6.60;99.90;;;;;;4135979;28;20042;-71
2020/12/27 07:03:23;;;;;;;1.38;0.40;;;6.60;99.90;;;;;;4137161;28;20046;-72
2020/12/27 07:05:31;;;;;;;0.20;0.20;;;6.60;99.90;;;;;;4137539;28;20046;-72
2020/12/27 07:07:47;;;;;;;0.10;0.10;;;6.60;99.90;;;;;;4136699;28;20670;-72
2020/12/27 07:09:50;;;;;;;0.20;0.20;;;6.60;99.90;;;;;;4137360;28;20034;-72
2020/12/27 07:12:08;;;;;;;0.13;0.13;;;6.60;99.90;;;;;;4128153;28;20157;-72
2020/12/27 07:14:11;;;;;;;0.17;0.10;;;6.70;99.90;;;;;;4141582;28;20037;-72
2020/12/27 07:16:15;;;;;;;;;;;6.70;99.90;;;;;;4136920;28;20044;-71
2020/12/27 07:18:26;;;;;;;0.20;0.20;;;6.70;99.90;;;;;;4142027;28;19913;-72
2020/12/27 07:20:30;;;;;;;0.10;0.10;;;6.70;99.90;;;;;;4127534;28;20046;-72
2020/12/27 07:22:32;;;;;;;0.10;0.10;;;6.70;99.90;;;;;;4134835;28;20042;-72
2020/12/27 07:24:38;;;;;;;0.10;0.10;;;6.70;99.90;;;;;;4137723;28;20034;-72
2020/12/27 07:26:42;;;;;;;0.10;0.10;;;6.80;99.90;;;;;;4133484;28;20029;-72
2020/12/27 07:28:44;;;;;;;0.20;0.20;;;6.80;99.90;;;;;;4137664;28;20049;-72
2020/12/27 07:30:47;;;;;;;0.15;0.13;;;6.80;99.90;;;;;;4136239;28;20074;-72
2020/12/27 07:32:49;;;;;;;0.10;0.10;;;6.80;99.90;;;;;;4141162;28;20030;-72
2020/12/27 07:34:52;;;;;;;0.73;0.30;;;6.80;99.90;;;;;;4133973;28;20033;-72
2020/12/27 07:37:00;;;;;;;0.20;0.20;;;6.80;99.90;;;;;;4137415;28;20058;-71
2020/12/27 07:39:04;;;;;;;1.17;0.20;;;6.90;99.90;;;;;;4151907;28;20574;-72
2020/12/27 07:41:06;;;;;;;0.20;0.10;;;6.90;99.90;;;;;;4134024;28;20410;-72
2020/12/27 07:43:10;;;;;;;0.20;0.10;;;6.90;99.90;;;;;;4138410;28;20121;-72
2020/12/27 07:45:13;;;;;;;0.60;0.30;;;6.90;99.90;;;;;;4138348;28;20042;-72
2020/12/27 07:47:13;;;;;;;0.17;0.10;;;6.90;99.90;;;;;;4135443;28;20062;-71
2020/12/27 07:49:14;;;;;;;1.30;0.20;;;6.90;99.90;;;;;;4135976;28;20841;-72
2020/12/27 07:51:17;;;;;;;0.68;0.40;;;6.90;99.90;;;;;;4134849;28;20033;-72
2020/12/27 07:53:19;;;;;;;;;;;6.90;99.90;;;;;;4139275;28;20038;-72
2020/12/27 07:55:27;;;;;;;0.25;0.10;;;6.90;99.90;;;;;;4135885;28;19913;-72
2020/12/27 07:57:27;;;;;;;0.60;0.20;;;6.90;99.90;;;;;;4136601;28;20038;-72
2020/12/27 07:59:28;;;;;;;0.40;0.20;;;6.90;99.90;;;;;;4136880;28;20029;-72
2020/12/27 08:01:34;;;;;;;0.20;0.10;;;6.90;99.90;;;;;;4136597;28;20546;-71
2020/12/27 08:03:35;;;;;;;0.50;0.30;;;6.90;99.90;;;;;;4134416;28;20046;-71
2020/12/27 08:05:37;;;;;;;0.57;0.28;;;7.00;99.90;;;;;;4139745;28;20038;-71
2020/12/27 08:07:41;;;;;;;0.90;0.20;;;7.00;99.90;;;;;;4136337;28;20037;-71
2020/12/27 08:09:42;;;;;;;0.20;0.10;;;7.00;99.90;;;;;;4136947;28;20042;-72
2020/12/27 08:11:44;;;;;;;0.28;0.20;;;6.90;99.90;;;;;;4132912;28;20036;-71
2020/12/27 08:13:50;;;;;;;0.77;0.10;;;6.90;99.90;;;;;;4138119;28;20049;-71
2020/12/27 08:15:50;;;;;;;0.17;0.08;;;6.90;99.90;;;;;;4128883;28;20471;-71
2020/12/27 08:18:10;;;;;;;0.10;0.03;;;6.90;99.90;;;;;;4142287;28;20095;-71
2020/12/27 08:20:11;;;;;;;0.52;0.30;;;6.90;99.90;;;;;;4136422;28;20061;-72
2020/12/27 08:22:11;;;;;;;0.30;0.20;;;6.90;99.90;;;;;;4133026;28;20186;-71
2020/12/27 08:24:14;;;;;;;2.85;0.30;;;6.90;99.90;;;;;;4140450;28;20034;-71
2020/12/27 08:26:15;;;;;;;0.40;0.30;;;6.90;99.90;;;;;;4135463;28;20122;-72
2020/12/27 08:28:17;;;;;;;0.22;0.20;;;6.90;99.90;;;;;;4130054;28;20290;-72
2020/12/27 08:30:18;;;;;;;0.80;0.60;;;6.90;99.90;;;;;;4132820;28;20398;-71
2020/12/27 08:32:19;;;;;;;0.47;0.40;;;6.80;99.90;;;;;;4141609;28;20038;-72
2020/12/27 08:34:22;;;;;;;0.55;0.30;;;6.80;99.90;;;;;;4140148;28;20233;-71
2020/12/27 08:36:23;;;;;;;0.43;0.25;;;6.80;99.90;;;;;;4140803;28;20457;-71
2020/12/27 08:38:35;;;;;;;0.40;0.20;;;6.70;99.90;;;;;;4140472;28;20511;-71
2020/12/27 08:40:40;;;;;;;0.63;0.38;;;6.70;99.90;;;;;;4133631;28;20038;-71
2020/12/27 08:42:45;;;;;;;0.55;0.20;;;6.70;99.90;;;;;;4130471;28;20026;-71
2020/12/27 08:44:49;;;;;;;1.52;0.20;;;6.70;99.90;;;;;;4134288;28;20084;-72
2020/12/27 08:46:53;;;;;;;0.20;0.20;;;6.70;99.90;;;;;;4130715;28;20502;-71
2020/12/27 08:49:22;;;;;;;0.28;0.20;;;6.70;99.90;;;;;;4136147;28;20032;-71
2020/12/27 08:51:24;;;;;;;0.65;0.43;;;6.60;99.90;;;;;;4100557;28;20045;-71
2020/12/27 08:53:25;;;;;;;;;;;6.70;99.90;;;;;;4135393;28;20045;-71
2020/12/27 08:55:28;;;;;;;0.30;0.20;;;6.70;99.90;;;;;;4136272;28;20300;-71
2020/12/27 08:57:29;;;;;;;0.30;0.20;;;6.60;99.90;;;;;;4135301;28;20034;-71
2020/12/27 08:59:30;;;;;;;0.70;0.20;;;6.60;99.90;;;;;;4138455;28;20125;-71
2020/12/27 09:01:31;;;;;;;0.10;0.10;;;6.60;99.90;;;;;;4132942;28;20100;-71
2020/12/27 09:03:42;;;;;;;1.65;0.22;;;6.60;99.90;;;;;;4134686;28;20045;-70
2020/12/27 09:05:42;;;;;;;0.15;0.13;;;6.60;99.90;;;;;;4132913;28;20054;-71
2020/12/27 09:07:45;;;;;;;0.43;0.30;;;6.60;99.90;;;;;;4131983;28;20483;-71
2020/12/27 09:09:46;;;;;;;0.63;0.10;;;6.50;99.90;;;;;;4137510;28;20034;-71
2020/12/27 09:11:48;;;;;;;0.38;0.20;;;6.60;99.90;;;;;;4133569;28;20038;-71
2020/12/27 09:13:48;;;;;;;1.65;0.00;;;6.60;99.90;;;;;;4135143;28;20065;-71
2020/12/27 09:15:49;;;;;;;0.85;0.20;;;6.50;99.90;;;;;;4130652;28;20402;-71
2020/12/27 09:18:04;;;;;;;0.32;0.28;;;6.50;99.90;;;;;;4134882;28;20031;-71
2020/12/27 09:20:05;;;;;;;0.47;0.22;;;6.50;99.90;;;;;;4153980;28;20112;-71
2020/12/27 09:22:06;;;;;;;0.57;0.30;;;6.50;99.90;;;;;;4139389;28;20056;-71
2020/12/27 09:24:14;;;;;;;0.30;0.10;;;6.50;99.90;;;;;;4135918;28;20037;-71
2020/12/27 09:26:15;;;;;;;0.52;0.40;;;6.50;99.90;;;;;;4133397;28;20084;-70
2020/12/27 09:28:18;;;;;;;0.43;0.40;;;6.50;99.90;;;;;;4132820;28;20046;-70
2020/12/27 09:30:21;;;;;;;0.73;0.30;;;6.40;99.90;;;;;;4133545;28;20084;-71
2020/12/27 09:32:22;;;;;;;0.93;0.40;;;6.40;99.90;;;;;;4132179;28;20395;-71
2020/12/27 09:34:24;;;;;;;6.70;0.30;;;6.40;99.90;;;;;;4138627;28;20129;-70
2020/12/27 09:36:24;;;;;;;1.48;0.35;;;6.40;99.90;;;;;;4139445;28;20042;-71
2020/12/27 09:38:28;;;;;;;0.68;0.32;;;6.40;99.90;;;;;;4130973;28;20579;-70
2020/12/27 09:40:29;;;;;;;0.95;0.30;;;6.40;99.90;;;;;;4129901;28;20038;-70
2020/12/27 09:42:32;;;;;;;1.60;0.80;;;6.40;99.90;;;;;;4138945;28;20474;-70
2020/12/27 09:44:33;;;;;;;3.92;1.55;;;6.40;99.90;;;;;;4133580;28;20042;-71
2020/12/27 09:46:44;;;;;;;5.80;1.67;;;6.40;99.90;;;;;;4140459;28;20454;-69
2020/12/27 09:48:44;;;;;;;2.55;1.30;;;6.50;99.90;;;;;;4138439;28;20343;-70
2020/12/27 09:50:45;;;;;;;2.15;0.73;;;6.40;99.90;;;;;;4137720;28;20030;-70
2020/12/27 09:52:46;;;;;;;9.98;1.80;;;6.50;99.90;;;;;;4137313;28;20086;-70
2020/12/27 09:54:47;;;;;;;2.20;0.82;;;6.40;99.90;;;;;;4140063;28;20034;-69
2020/12/27 09:56:47;;;;;;;0.88;0.40;;;6.40;99.90;;;;;;4134380;28;20529;-69
2020/12/27 09:58:48;;;;;;;1.38;0.40;;;6.40;99.90;;;;;;4156069;28;20116;-70
2020/12/27 10:00:48;;;;;;;1.08;0.40;;;6.40;99.90;;;;;;4142217;28;20935;-70
2020/12/27 10:02:49;;;;;;;0.40;0.32;;;6.40;99.90;;;;;;4142501;28;20270;-69
2020/12/27 10:04:50;;;;;;;0.70;0.35;;;6.40;99.90;;;;;;4141521;28;20030;-69
2020/12/27 10:06:50;;;;;;;0.32;0.32;;;6.30;99.90;;;;;;4145837;28;20037;-69
2020/12/27 10:08:51;;;;;;;2.42;0.30;;;6.40;99.90;;;;;;4141174;28;20562;-70
2020/12/27 10:10:51;;;;;;;0.77;0.30;;;6.30;99.90;;;;;;4142245;28;20121;-70
2020/12/27 10:12:52;;;;;;;0.57;0.30;;;6.40;99.90;;;;;;4143910;28;20026;-69
2020/12/27 10:14:53;;;;;;;0.30;0.20;;;6.30;99.90;;;;;;4142448;28;20132;-70
2020/12/27 10:16:56;;;;;;;2.60;0.50;;;6.30;99.90;;;;;;4139607;28;20637;-70
2020/12/27 10:18:57;;;;;;;0.63;0.30;;;6.30;99.90;;;;;;4135560;28;20042;-69
2020/12/27 10:20:57;;;;;;;0.63;0.30;;;6.30;99.90;;;;;;4136465;28;20508;-69
2020/12/27 10:22:58;;;;;;;0.68;0.38;;;6.30;99.90;;;;;;4140949;28;20101;-69
2020/12/27 10:24:59;;;;;;;1.23;0.22;;;6.30;99.90;;;;;;4159049;28;20124;-70
2020/12/27 10:27:02;;;;;;;5.32;0.30;;;6.30;99.90;;;;;;4143432;28;20710;-69
2020/12/27 10:29:02;;;;;;;0.90;0.22;;;6.30;99.90;;;;;;4137318;28;20053;-69
2020/12/27 10:31:03;;;;;;;0.98;0.50;;;6.30;99.90;;;;;;4136487;28;20044;-70
2020/12/27 10:33:04;;;;;;;1.67;0.20;;;6.30;99.90;;;;;;4141920;28;20444;-69
2020/12/27 10:35:04;;;;;;;0.15;0.15;;;6.40;99.90;;;;;;4141535;28;20065;-69
2020/12/27 10:37:05;;;;;;;0.45;0.30;;;6.30;99.90;;;;;;4138948;28;20120;-69
2020/12/27 10:39:06;;;;;;;1.17;0.10;;;6.40;99.90;;;;;;4139535;28;20430;-69
2020/12/27 10:41:07;;;;;;;0.30;0.20;;;6.40;99.90;;;;;;4139023;28;20061;-69
2020/12/27 10:43:07;;;;;;;1.85;0.80;;;6.40;99.90;;;;;;4142391;28;20044;-70
2020/12/27 10:45:08;;;;;;;0.55;0.40;;;6.40;99.90;;;;;;4132045;28;20038;-69
2020/12/27 10:47:08;;;;;;;0.65;0.40;;;6.40;99.90;;;;;;4140027;28;20041;-69